Irving, TX (75014)

12:45 PM CST on December 03, 2016 (GMT -0600)
Toler Lane, Irving, Texas USA | | Change Station

Elev 551 ft 32.84 °N, 96.96 °W | Updated 18 seconds ago

Rain
Rain
49.6 °F
Feels Like 50 °F
N
0.0
Wind Variable Wind from NNW
Gusts 0.0 mph

Today
High -- | Low -- °F
--% Chance of Precip.
Yesterday
High -- | Low -- °F
Precip. -- in
Pressure 30.04 in
Visibility 10.0 miles
Clouds Mostly Cloudy 900 ft
Overcast 1300 ft
Windchill 50 °F
Dew Point 47 °F
Humidity 92%
Rainfall 0.32 in
Snow Depth Not available.
7:14 AM 5:21 PM
Waxing Crescent, 16% visible
SPECI KDAL 031835Z 08006KT 10SM BKN009 OVC013 11/09 A3004 RMK AO2 RAE17 BKN V OVC P0001 T01060089
Pressure 30.04 in
Visibility 10.0 miles
Clouds Mostly Cloudy 900 ft
Overcast 1300 ft
Windchill 50 °F
Dew Point 47 °F
Humidity 92%
Rainfall 0.32 in
Snow Depth Not available.
7:14 AM 5:21 PM
Waxing Crescent, 16% visible
SPECI KDAL 031835Z 08006KT 10SM BKN009 OVC013 11/09 A3004 RMK AO2 RAE17 BKN V OVC P0001 T01060089

10-Day Weather Forecast

Almanac

Astronomy

Dec. 03, 2016 Rise Set
Actual Time
Civil Twilight
Nautical Twilight
Astronomical Twilight
Moon
Length of Visible Light
Length of Day
Tomorrow will be .
, % of the Moon is Illuminated

Today's Extremes

State Highs State Lows

Community

WunderPhotos

Upload Photos

1,955,469 photos uploaded!

WunderBlog® & News

Nearby

Air Quality

  Air Quality AQ Index Pollutant
Not available.

Snow Depth

Station Depth Elevation

Earthquake Activity

City Distance Mag. Time & Date
Minimum magnitude displayed is 2.5.

Coastal Water Temperatures

Place Temperature

Stations

Nearby Weather Stations

Station Location Temp. Windchill Dew Point Humidity Wind Precip. Elev Updated Type
                   

Watches & Warnings

There are currently no watches in effect.